<?xml version="1.0" encoding="UTF-8" standalone="no" ?>
<gpx xmlns="http://www.topografix.com/GPX/1/1" xmlns:xsi="http://www.w3.org/2001/XMLSchema-instance" xsi:schemaLocation="http://www.topografix.com/GPX/1/1 http://www.topografix.com/GPX/1/1/gpx.xsd" version="1.1" creator="VisuGPX - https://www.visugpx.com">
  <metadata>
    <name>Montfort sur Argens</name>
    <desc><![CDATA[Chemin du robernier]]></desc>
  </metadata>
  <wpt lat="43.47242" lon="6.1234">
    <ele>144</ele>
    <name><![CDATA[Point de passage 1]]></name>
  </wpt>
  <wpt lat="43.47228" lon="6.12341">
    <ele>143</ele>
    <name><![CDATA[Point de passage 2]]></name>
  </wpt>
  <trk>
    <name><![CDATA[Montfort sur Argens par le chemin du robernier]]></name>
    <extensions>
      <line xmlns="http://www.topografix.com/GPX/gpx_style/0/2">
        <color>0000FF</color>
        <width>4</width>
      </line>
    </extensions>
    <trkseg>
      <trkpt lat="43.47242" lon="6.1234">
        <ele>144</ele>
        <time>2025-12-13T08:04:42.000Z</time>
      </trkpt>
      <trkpt lat="43.47243" lon="6.12277">
        <ele>145</ele>
        <time>2025-12-13T08:05:45.000Z</time>
      </trkpt>
      <trkpt lat="43.47248" lon="6.12253">
        <ele>145</ele>
        <time>2025-12-13T08:06:06.000Z</time>
      </trkpt>
      <trkpt lat="43.47254" lon="6.12244">
        <ele>145</ele>
        <time>2025-12-13T08:06:16.000Z</time>
      </trkpt>
      <trkpt lat="43.47316" lon="6.12211">
        <ele>147</ele>
        <time>2025-12-13T08:07:53.000Z</time>
      </trkpt>
      <trkpt lat="43.47387" lon="6.12193">
        <ele>149</ele>
        <time>2025-12-13T08:09:36.000Z</time>
      </trkpt>
      <trkpt lat="43.47391" lon="6.12234">
        <ele>150</ele>
        <time>2025-12-13T08:10:20.000Z</time>
      </trkpt>
      <trkpt lat="43.47401" lon="6.12231">
        <ele>151</ele>
        <time>2025-12-13T08:10:42.000Z</time>
      </trkpt>
      <trkpt lat="43.47407" lon="6.12219">
        <ele>151</ele>
        <time>2025-12-13T08:10:55.000Z</time>
      </trkpt>
      <trkpt lat="43.47431" lon="6.12238">
        <ele>160</ele>
        <time>2025-12-13T08:12:59.000Z</time>
      </trkpt>
      <trkpt lat="43.47455" lon="6.12249">
        <ele>169</ele>
        <time>2025-12-13T08:15:01.000Z</time>
      </trkpt>
      <trkpt lat="43.47462" lon="6.12241">
        <ele>170</ele>
        <time>2025-12-13T08:15:22.000Z</time>
      </trkpt>
      <trkpt lat="43.4747" lon="6.12234">
        <ele>171</ele>
        <time>2025-12-13T08:15:43.000Z</time>
      </trkpt>
      <trkpt lat="43.47478" lon="6.12228">
        <ele>172</ele>
        <time>2025-12-13T08:16:04.000Z</time>
      </trkpt>
      <trkpt lat="43.47486" lon="6.12222">
        <ele>174</ele>
        <time>2025-12-13T08:16:35.000Z</time>
      </trkpt>
      <trkpt lat="43.47495" lon="6.12217">
        <ele>177</ele>
        <time>2025-12-13T08:17:17.000Z</time>
      </trkpt>
      <trkpt lat="43.47504" lon="6.12213">
        <ele>179</ele>
        <time>2025-12-13T08:17:48.000Z</time>
      </trkpt>
      <trkpt lat="43.47513" lon="6.12209">
        <ele>180</ele>
        <time>2025-12-13T08:18:09.000Z</time>
      </trkpt>
      <trkpt lat="43.47522" lon="6.12208">
        <ele>182</ele>
        <time>2025-12-13T08:18:41.000Z</time>
      </trkpt>
      <trkpt lat="43.47531" lon="6.12214">
        <ele>182</ele>
        <time>2025-12-13T08:18:52.000Z</time>
      </trkpt>
      <trkpt lat="43.4754" lon="6.12217">
        <ele>183</ele>
        <time>2025-12-13T08:19:13.000Z</time>
      </trkpt>
      <trkpt lat="43.47547" lon="6.12226">
        <ele>186</ele>
        <time>2025-12-13T08:19:55.000Z</time>
      </trkpt>
      <trkpt lat="43.47555" lon="6.12231">
        <ele>188</ele>
        <time>2025-12-13T08:20:26.000Z</time>
      </trkpt>
      <trkpt lat="43.4756" lon="6.12241">
        <ele>191</ele>
        <time>2025-12-13T08:21:07.000Z</time>
      </trkpt>
      <trkpt lat="43.47569" lon="6.12246">
        <ele>193</ele>
        <time>2025-12-13T08:21:38.000Z</time>
      </trkpt>
      <trkpt lat="43.47577" lon="6.12252">
        <ele>193</ele>
        <time>2025-12-13T08:21:49.000Z</time>
      </trkpt>
      <trkpt lat="43.47584" lon="6.12261">
        <ele>195</ele>
        <time>2025-12-13T08:22:21.000Z</time>
      </trkpt>
      <trkpt lat="43.47594" lon="6.12265">
        <ele>193</ele>
        <time>2025-12-13T08:22:32.000Z</time>
      </trkpt>
      <trkpt lat="43.47602" lon="6.12271">
        <ele>195</ele>
        <time>2025-12-13T08:23:03.000Z</time>
      </trkpt>
      <trkpt lat="43.4761" lon="6.12277">
        <ele>196</ele>
        <time>2025-12-13T08:23:24.000Z</time>
      </trkpt>
      <trkpt lat="43.47618" lon="6.12284">
        <ele>198</ele>
        <time>2025-12-13T08:23:55.000Z</time>
      </trkpt>
      <trkpt lat="43.47626" lon="6.12291">
        <ele>199</ele>
        <time>2025-12-13T08:24:16.000Z</time>
      </trkpt>
      <trkpt lat="43.47633" lon="6.12299">
        <ele>199</ele>
        <time>2025-12-13T08:24:27.000Z</time>
      </trkpt>
      <trkpt lat="43.47642" lon="6.12304">
        <ele>200</ele>
        <time>2025-12-13T08:24:48.000Z</time>
      </trkpt>
      <trkpt lat="43.47648" lon="6.12313">
        <ele>202</ele>
        <time>2025-12-13T08:25:19.000Z</time>
      </trkpt>
      <trkpt lat="43.47654" lon="6.12322">
        <ele>203</ele>
        <time>2025-12-13T08:25:40.000Z</time>
      </trkpt>
      <trkpt lat="43.47661" lon="6.12331">
        <ele>204</ele>
        <time>2025-12-13T08:26:02.000Z</time>
      </trkpt>
      <trkpt lat="43.47669" lon="6.12339">
        <ele>205</ele>
        <time>2025-12-13T08:26:23.000Z</time>
      </trkpt>
      <trkpt lat="43.47678" lon="6.12344">
        <ele>207</ele>
        <time>2025-12-13T08:26:54.000Z</time>
      </trkpt>
      <trkpt lat="43.47687" lon="6.12348">
        <ele>208</ele>
        <time>2025-12-13T08:27:15.000Z</time>
      </trkpt>
      <trkpt lat="43.47694" lon="6.12355">
        <ele>208</ele>
        <time>2025-12-13T08:27:25.000Z</time>
      </trkpt>
      <trkpt lat="43.47702" lon="6.12363">
        <ele>210</ele>
        <time>2025-12-13T08:27:57.000Z</time>
      </trkpt>
      <trkpt lat="43.4771" lon="6.1237">
        <ele>211</ele>
        <time>2025-12-13T08:28:18.000Z</time>
      </trkpt>
      <trkpt lat="43.47717" lon="6.12378">
        <ele>212</ele>
        <time>2025-12-13T08:28:39.000Z</time>
      </trkpt>
      <trkpt lat="43.47726" lon="6.12385">
        <ele>213</ele>
        <time>2025-12-13T08:29:01.000Z</time>
      </trkpt>
      <trkpt lat="43.47734" lon="6.12391">
        <ele>213</ele>
        <time>2025-12-13T08:29:11.000Z</time>
      </trkpt>
      <trkpt lat="43.47743" lon="6.12398">
        <ele>214</ele>
        <time>2025-12-13T08:29:32.000Z</time>
      </trkpt>
      <trkpt lat="43.4775" lon="6.12404">
        <ele>215</ele>
        <time>2025-12-13T08:29:53.000Z</time>
      </trkpt>
      <trkpt lat="43.47759" lon="6.12412">
        <ele>216</ele>
        <time>2025-12-13T08:30:15.000Z</time>
      </trkpt>
      <trkpt lat="43.47766" lon="6.12421">
        <ele>216</ele>
        <time>2025-12-13T08:30:26.000Z</time>
      </trkpt>
      <trkpt lat="43.47773" lon="6.12428">
        <ele>215</ele>
        <time>2025-12-13T08:30:37.000Z</time>
      </trkpt>
      <trkpt lat="43.47781" lon="6.12435">
        <ele>213</ele>
        <time>2025-12-13T08:30:48.000Z</time>
      </trkpt>
      <trkpt lat="43.47787" lon="6.12445">
        <ele>212</ele>
        <time>2025-12-13T08:30:59.000Z</time>
      </trkpt>
      <trkpt lat="43.47789" lon="6.12457">
        <ele>211</ele>
        <time>2025-12-13T08:31:09.000Z</time>
      </trkpt>
      <trkpt lat="43.47797" lon="6.12464">
        <ele>210</ele>
        <time>2025-12-13T08:31:20.000Z</time>
      </trkpt>
      <trkpt lat="43.47804" lon="6.12474">
        <ele>208</ele>
        <time>2025-12-13T08:31:31.000Z</time>
      </trkpt>
      <trkpt lat="43.47811" lon="6.12483">
        <ele>208</ele>
        <time>2025-12-13T08:31:42.000Z</time>
      </trkpt>
      <trkpt lat="43.47817" lon="6.12493">
        <ele>208</ele>
        <time>2025-12-13T08:31:53.000Z</time>
      </trkpt>
      <trkpt lat="43.47821" lon="6.12505">
        <ele>206</ele>
        <time>2025-12-13T08:32:04.000Z</time>
      </trkpt>
      <trkpt lat="43.4783" lon="6.12511">
        <ele>206</ele>
        <time>2025-12-13T08:32:15.000Z</time>
      </trkpt>
      <trkpt lat="43.47836" lon="6.1252">
        <ele>207</ele>
        <time>2025-12-13T08:32:36.000Z</time>
      </trkpt>
      <trkpt lat="43.47834" lon="6.12532">
        <ele>205</ele>
        <time>2025-12-13T08:32:47.000Z</time>
      </trkpt>
      <trkpt lat="43.47837" lon="6.12545">
        <ele>203</ele>
        <time>2025-12-13T08:32:58.000Z</time>
      </trkpt>
      <trkpt lat="43.47842" lon="6.12556">
        <ele>202</ele>
        <time>2025-12-13T08:33:09.000Z</time>
      </trkpt>
      <trkpt lat="43.47843" lon="6.1257">
        <ele>202</ele>
        <time>2025-12-13T08:33:21.000Z</time>
      </trkpt>
      <trkpt lat="43.47848" lon="6.12581">
        <ele>200</ele>
        <time>2025-12-13T08:33:32.000Z</time>
      </trkpt>
      <trkpt lat="43.47858" lon="6.12586">
        <ele>199</ele>
        <time>2025-12-13T08:33:44.000Z</time>
      </trkpt>
      <trkpt lat="43.47867" lon="6.12589">
        <ele>198</ele>
        <time>2025-12-13T08:33:55.000Z</time>
      </trkpt>
      <trkpt lat="43.47876" lon="6.12591">
        <ele>197</ele>
        <time>2025-12-13T08:34:06.000Z</time>
      </trkpt>
      <trkpt lat="43.47886" lon="6.12593">
        <ele>197</ele>
        <time>2025-12-13T08:34:17.000Z</time>
      </trkpt>
      <trkpt lat="43.47895" lon="6.12596">
        <ele>196</ele>
        <time>2025-12-13T08:34:28.000Z</time>
      </trkpt>
      <trkpt lat="43.47904" lon="6.12603">
        <ele>195</ele>
        <time>2025-12-13T08:34:39.000Z</time>
      </trkpt>
      <trkpt lat="43.47911" lon="6.12611">
        <ele>195</ele>
        <time>2025-12-13T08:34:50.000Z</time>
      </trkpt>
      <trkpt lat="43.47919" lon="6.12618">
        <ele>194</ele>
        <time>2025-12-13T08:35:01.000Z</time>
      </trkpt>
      <trkpt lat="43.47927" lon="6.12624">
        <ele>195</ele>
        <time>2025-12-13T08:35:22.000Z</time>
      </trkpt>
      <trkpt lat="43.47936" lon="6.12629">
        <ele>195</ele>
        <time>2025-12-13T08:35:33.000Z</time>
      </trkpt>
      <trkpt lat="43.47945" lon="6.12636">
        <ele>194</ele>
        <time>2025-12-13T08:35:44.000Z</time>
      </trkpt>
      <trkpt lat="43.47952" lon="6.12645">
        <ele>194</ele>
        <time>2025-12-13T08:35:55.000Z</time>
      </trkpt>
      <trkpt lat="43.47959" lon="6.12654">
        <ele>195</ele>
        <time>2025-12-13T08:36:16.000Z</time>
      </trkpt>
      <trkpt lat="43.47966" lon="6.12663">
        <ele>195</ele>
        <time>2025-12-13T08:36:26.000Z</time>
      </trkpt>
      <trkpt lat="43.47972" lon="6.12672">
        <ele>195</ele>
        <time>2025-12-13T08:36:37.000Z</time>
      </trkpt>
      <trkpt lat="43.47979" lon="6.12681">
        <ele>195</ele>
        <time>2025-12-13T08:36:48.000Z</time>
      </trkpt>
      <trkpt lat="43.47985" lon="6.1269">
        <ele>195</ele>
        <time>2025-12-13T08:36:58.000Z</time>
      </trkpt>
      <trkpt lat="43.4799" lon="6.12703">
        <ele>196</ele>
        <time>2025-12-13T08:37:20.000Z</time>
      </trkpt>
      <trkpt lat="43.47994" lon="6.12715">
        <ele>196</ele>
        <time>2025-12-13T08:37:31.000Z</time>
      </trkpt>
      <trkpt lat="43.47999" lon="6.12725">
        <ele>197</ele>
        <time>2025-12-13T08:37:52.000Z</time>
      </trkpt>
      <trkpt lat="43.48003" lon="6.12737">
        <ele>197</ele>
        <time>2025-12-13T08:38:03.000Z</time>
      </trkpt>
      <trkpt lat="43.48007" lon="6.12748">
        <ele>197</ele>
        <time>2025-12-13T08:38:13.000Z</time>
      </trkpt>
      <trkpt lat="43.48012" lon="6.12758">
        <ele>198</ele>
        <time>2025-12-13T08:38:34.000Z</time>
      </trkpt>
      <trkpt lat="43.48016" lon="6.1277">
        <ele>198</ele>
        <time>2025-12-13T08:38:45.000Z</time>
      </trkpt>
      <trkpt lat="43.48023" lon="6.12778">
        <ele>197</ele>
        <time>2025-12-13T08:38:56.000Z</time>
      </trkpt>
      <trkpt lat="43.48032" lon="6.12784">
        <ele>196</ele>
        <time>2025-12-13T08:39:07.000Z</time>
      </trkpt>
      <trkpt lat="43.48039" lon="6.1279">
        <ele>195</ele>
        <time>2025-12-13T08:39:17.000Z</time>
      </trkpt>
      <trkpt lat="43.48047" lon="6.128">
        <ele>194</ele>
        <time>2025-12-13T08:39:29.000Z</time>
      </trkpt>
      <trkpt lat="43.48055" lon="6.12806">
        <ele>193</ele>
        <time>2025-12-13T08:39:40.000Z</time>
      </trkpt>
      <trkpt lat="43.48064" lon="6.12814">
        <ele>192</ele>
        <time>2025-12-13T08:39:51.000Z</time>
      </trkpt>
      <trkpt lat="43.48071" lon="6.12822">
        <ele>192</ele>
        <time>2025-12-13T08:40:02.000Z</time>
      </trkpt>
      <trkpt lat="43.4808" lon="6.12827">
        <ele>191</ele>
        <time>2025-12-13T08:40:13.000Z</time>
      </trkpt>
      <trkpt lat="43.48089" lon="6.12834">
        <ele>190</ele>
        <time>2025-12-13T08:40:24.000Z</time>
      </trkpt>
      <trkpt lat="43.48097" lon="6.1284">
        <ele>189</ele>
        <time>2025-12-13T08:40:35.000Z</time>
      </trkpt>
      <trkpt lat="43.48102" lon="6.12852">
        <ele>189</ele>
        <time>2025-12-13T08:40:46.000Z</time>
      </trkpt>
      <trkpt lat="43.48107" lon="6.12863">
        <ele>188</ele>
        <time>2025-12-13T08:40:57.000Z</time>
      </trkpt>
      <trkpt lat="43.48112" lon="6.12874">
        <ele>188</ele>
        <time>2025-12-13T08:41:08.000Z</time>
      </trkpt>
      <trkpt lat="43.4812" lon="6.12883">
        <ele>188</ele>
        <time>2025-12-13T08:41:19.000Z</time>
      </trkpt>
      <trkpt lat="43.48127" lon="6.12891">
        <ele>189</ele>
        <time>2025-12-13T08:41:40.000Z</time>
      </trkpt>
      <trkpt lat="43.48134" lon="6.12898">
        <ele>190</ele>
        <time>2025-12-13T08:42:01.000Z</time>
      </trkpt>
      <trkpt lat="43.48141" lon="6.12907">
        <ele>191</ele>
        <time>2025-12-13T08:42:22.000Z</time>
      </trkpt>
      <trkpt lat="43.48148" lon="6.12917">
        <ele>192</ele>
        <time>2025-12-13T08:42:43.000Z</time>
      </trkpt>
      <trkpt lat="43.48154" lon="6.12927">
        <ele>192</ele>
        <time>2025-12-13T08:42:54.000Z</time>
      </trkpt>
      <trkpt lat="43.48161" lon="6.12935">
        <ele>192</ele>
        <time>2025-12-13T08:43:05.000Z</time>
      </trkpt>
      <trkpt lat="43.48167" lon="6.12946">
        <ele>192</ele>
        <time>2025-12-13T08:43:16.000Z</time>
      </trkpt>
      <trkpt lat="43.48173" lon="6.12955">
        <ele>193</ele>
        <time>2025-12-13T08:43:37.000Z</time>
      </trkpt>
      <trkpt lat="43.4818" lon="6.12964">
        <ele>192</ele>
        <time>2025-12-13T08:43:48.000Z</time>
      </trkpt>
      <trkpt lat="43.48186" lon="6.12974">
        <ele>193</ele>
        <time>2025-12-13T08:44:09.000Z</time>
      </trkpt>
      <trkpt lat="43.48193" lon="6.12983">
        <ele>193</ele>
        <time>2025-12-13T08:44:20.000Z</time>
      </trkpt>
      <trkpt lat="43.48198" lon="6.12993">
        <ele>194</ele>
        <time>2025-12-13T08:44:41.000Z</time>
      </trkpt>
      <trkpt lat="43.482" lon="6.13005">
        <ele>193</ele>
        <time>2025-12-13T08:44:51.000Z</time>
      </trkpt>
      <trkpt lat="43.48204" lon="6.13017">
        <ele>194</ele>
        <time>2025-12-13T08:45:12.000Z</time>
      </trkpt>
      <trkpt lat="43.48208" lon="6.1303">
        <ele>194</ele>
        <time>2025-12-13T08:45:24.000Z</time>
      </trkpt>
      <trkpt lat="43.48212" lon="6.13042">
        <ele>193</ele>
        <time>2025-12-13T08:45:35.000Z</time>
      </trkpt>
      <trkpt lat="43.48215" lon="6.13053">
        <ele>192</ele>
        <time>2025-12-13T08:45:45.000Z</time>
      </trkpt>
      <trkpt lat="43.48221" lon="6.13064">
        <ele>193</ele>
        <time>2025-12-13T08:46:06.000Z</time>
      </trkpt>
      <trkpt lat="43.48226" lon="6.13075">
        <ele>193</ele>
        <time>2025-12-13T08:46:17.000Z</time>
      </trkpt>
      <trkpt lat="43.48232" lon="6.13084">
        <ele>193</ele>
        <time>2025-12-13T08:46:27.000Z</time>
      </trkpt>
      <trkpt lat="43.48238" lon="6.13095">
        <ele>193</ele>
        <time>2025-12-13T08:46:38.000Z</time>
      </trkpt>
      <trkpt lat="43.48242" lon="6.13106">
        <ele>193</ele>
        <time>2025-12-13T08:46:48.000Z</time>
      </trkpt>
      <trkpt lat="43.48249" lon="6.13115">
        <ele>194</ele>
        <time>2025-12-13T08:47:09.000Z</time>
      </trkpt>
      <trkpt lat="43.48255" lon="6.13125">
        <ele>194</ele>
        <time>2025-12-13T08:47:20.000Z</time>
      </trkpt>
      <trkpt lat="43.48262" lon="6.13134">
        <ele>195</ele>
        <time>2025-12-13T08:47:41.000Z</time>
      </trkpt>
      <trkpt lat="43.48269" lon="6.13144">
        <ele>195</ele>
        <time>2025-12-13T08:47:53.000Z</time>
      </trkpt>
      <trkpt lat="43.4828" lon="6.13144">
        <ele>196</ele>
        <time>2025-12-13T08:48:15.000Z</time>
      </trkpt>
      <trkpt lat="43.48289" lon="6.13145">
        <ele>196</ele>
        <time>2025-12-13T08:48:26.000Z</time>
      </trkpt>
      <trkpt lat="43.48298" lon="6.13145">
        <ele>198</ele>
        <time>2025-12-13T08:48:57.000Z</time>
      </trkpt>
      <trkpt lat="43.48307" lon="6.13146">
        <ele>199</ele>
        <time>2025-12-13T08:49:18.000Z</time>
      </trkpt>
      <trkpt lat="43.48317" lon="6.13149">
        <ele>200</ele>
        <time>2025-12-13T08:49:40.000Z</time>
      </trkpt>
      <trkpt lat="43.48327" lon="6.13149">
        <ele>201</ele>
        <time>2025-12-13T08:50:01.000Z</time>
      </trkpt>
      <trkpt lat="43.48336" lon="6.13152">
        <ele>203</ele>
        <time>2025-12-13T08:50:33.000Z</time>
      </trkpt>
      <trkpt lat="43.48346" lon="6.13154">
        <ele>203</ele>
        <time>2025-12-13T08:50:44.000Z</time>
      </trkpt>
      <trkpt lat="43.48353" lon="6.13164">
        <ele>201</ele>
        <time>2025-12-13T08:50:55.000Z</time>
      </trkpt>
      <trkpt lat="43.4836" lon="6.13171">
        <ele>200</ele>
        <time>2025-12-13T08:51:06.000Z</time>
      </trkpt>
      <trkpt lat="43.48367" lon="6.1318">
        <ele>200</ele>
        <time>2025-12-13T08:51:17.000Z</time>
      </trkpt>
      <trkpt lat="43.48376" lon="6.13186">
        <ele>199</ele>
        <time>2025-12-13T08:51:28.000Z</time>
      </trkpt>
      <trkpt lat="43.48386" lon="6.13183">
        <ele>199</ele>
        <time>2025-12-13T08:51:39.000Z</time>
      </trkpt>
      <trkpt lat="43.48395" lon="6.1318">
        <ele>199</ele>
        <time>2025-12-13T08:51:50.000Z</time>
      </trkpt>
      <trkpt lat="43.48405" lon="6.13175">
        <ele>200</ele>
        <time>2025-12-13T08:52:12.000Z</time>
      </trkpt>
      <trkpt lat="43.48414" lon="6.13172">
        <ele>200</ele>
        <time>2025-12-13T08:52:23.000Z</time>
      </trkpt>
      <trkpt lat="43.48423" lon="6.13168">
        <ele>200</ele>
        <time>2025-12-13T08:52:34.000Z</time>
      </trkpt>
      <trkpt lat="43.48433" lon="6.13166">
        <ele>201</ele>
        <time>2025-12-13T08:52:55.000Z</time>
      </trkpt>
      <trkpt lat="43.48443" lon="6.13165">
        <ele>201</ele>
        <time>2025-12-13T08:53:06.000Z</time>
      </trkpt>
      <trkpt lat="43.48452" lon="6.13161">
        <ele>199</ele>
        <time>2025-12-13T08:53:17.000Z</time>
      </trkpt>
      <trkpt lat="43.48459" lon="6.13154">
        <ele>198</ele>
        <time>2025-12-13T08:53:28.000Z</time>
      </trkpt>
      <trkpt lat="43.48465" lon="6.13143">
        <ele>198</ele>
        <time>2025-12-13T08:53:39.000Z</time>
      </trkpt>
      <trkpt lat="43.48471" lon="6.13134">
        <ele>196</ele>
        <time>2025-12-13T08:53:49.000Z</time>
      </trkpt>
      <trkpt lat="43.48479" lon="6.13127">
        <ele>194</ele>
        <time>2025-12-13T08:54:00.000Z</time>
      </trkpt>
      <trkpt lat="43.48486" lon="6.13117">
        <ele>193</ele>
        <time>2025-12-13T08:54:11.000Z</time>
      </trkpt>
      <trkpt lat="43.4849" lon="6.13105">
        <ele>192</ele>
        <time>2025-12-13T08:54:22.000Z</time>
      </trkpt>
      <trkpt lat="43.48494" lon="6.13093">
        <ele>191</ele>
        <time>2025-12-13T08:54:33.000Z</time>
      </trkpt>
      <trkpt lat="43.48501" lon="6.13084">
        <ele>189</ele>
        <time>2025-12-13T08:54:44.000Z</time>
      </trkpt>
      <trkpt lat="43.48508" lon="6.13075">
        <ele>188</ele>
        <time>2025-12-13T08:54:55.000Z</time>
      </trkpt>
      <trkpt lat="43.48516" lon="6.13065">
        <ele>186</ele>
        <time>2025-12-13T08:55:07.000Z</time>
      </trkpt>
      <trkpt lat="43.48525" lon="6.13061">
        <ele>186</ele>
        <time>2025-12-13T08:55:18.000Z</time>
      </trkpt>
      <trkpt lat="43.48532" lon="6.13054">
        <ele>186</ele>
        <time>2025-12-13T08:55:29.000Z</time>
      </trkpt>
      <trkpt lat="43.48542" lon="6.13048">
        <ele>186</ele>
        <time>2025-12-13T08:55:41.000Z</time>
      </trkpt>
      <trkpt lat="43.4855" lon="6.13041">
        <ele>186</ele>
        <time>2025-12-13T08:55:52.000Z</time>
      </trkpt>
      <trkpt lat="43.48559" lon="6.13036">
        <ele>185</ele>
        <time>2025-12-13T08:56:03.000Z</time>
      </trkpt>
      <trkpt lat="43.48568" lon="6.1303">
        <ele>185</ele>
        <time>2025-12-13T08:56:15.000Z</time>
      </trkpt>
      <trkpt lat="43.48578" lon="6.13024">
        <ele>185</ele>
        <time>2025-12-13T08:56:27.000Z</time>
      </trkpt>
      <trkpt lat="43.48586" lon="6.13018">
        <ele>186</ele>
        <time>2025-12-13T08:56:48.000Z</time>
      </trkpt>
      <trkpt lat="43.48596" lon="6.13013">
        <ele>185</ele>
        <time>2025-12-13T08:57:00.000Z</time>
      </trkpt>
      <trkpt lat="43.48603" lon="6.13006">
        <ele>186</ele>
        <time>2025-12-13T08:57:21.000Z</time>
      </trkpt>
      <trkpt lat="43.48612" lon="6.13">
        <ele>186</ele>
        <time>2025-12-13T08:57:32.000Z</time>
      </trkpt>
      <trkpt lat="43.48621" lon="6.12995">
        <ele>186</ele>
        <time>2025-12-13T08:57:43.000Z</time>
      </trkpt>
      <trkpt lat="43.48629" lon="6.1299">
        <ele>186</ele>
        <time>2025-12-13T08:57:54.000Z</time>
      </trkpt>
      <trkpt lat="43.48637" lon="6.12982">
        <ele>186</ele>
        <time>2025-12-13T08:58:05.000Z</time>
      </trkpt>
      <trkpt lat="43.48642" lon="6.12971">
        <ele>186</ele>
        <time>2025-12-13T08:58:16.000Z</time>
      </trkpt>
      <trkpt lat="43.48649" lon="6.12962">
        <ele>187</ele>
        <time>2025-12-13T08:58:37.000Z</time>
      </trkpt>
      <trkpt lat="43.48657" lon="6.12955">
        <ele>187</ele>
        <time>2025-12-13T08:58:48.000Z</time>
      </trkpt>
      <trkpt lat="43.48666" lon="6.12948">
        <ele>187</ele>
        <time>2025-12-13T08:59:00.000Z</time>
      </trkpt>
      <trkpt lat="43.48674" lon="6.1294">
        <ele>188</ele>
        <time>2025-12-13T08:59:22.000Z</time>
      </trkpt>
      <trkpt lat="43.48682" lon="6.12933">
        <ele>186</ele>
        <time>2025-12-13T08:59:33.000Z</time>
      </trkpt>
      <trkpt lat="43.48689" lon="6.12925">
        <ele>185</ele>
        <time>2025-12-13T08:59:44.000Z</time>
      </trkpt>
      <trkpt lat="43.48695" lon="6.12916">
        <ele>186</ele>
        <time>2025-12-13T09:00:05.000Z</time>
      </trkpt>
      <trkpt lat="43.48704" lon="6.12908">
        <ele>187</ele>
        <time>2025-12-13T09:00:27.000Z</time>
      </trkpt>
      <trkpt lat="43.48712" lon="6.129">
        <ele>186</ele>
        <time>2025-12-13T09:00:39.000Z</time>
      </trkpt>
      <trkpt lat="43.4872" lon="6.12893">
        <ele>187</ele>
        <time>2025-12-13T09:01:01.000Z</time>
      </trkpt>
      <trkpt lat="43.48728" lon="6.12885">
        <ele>187</ele>
        <time>2025-12-13T09:01:12.000Z</time>
      </trkpt>
      <trkpt lat="43.48736" lon="6.12878">
        <ele>187</ele>
        <time>2025-12-13T09:01:22.000Z</time>
      </trkpt>
      <trkpt lat="43.48745" lon="6.12872">
        <ele>186</ele>
        <time>2025-12-13T09:01:34.000Z</time>
      </trkpt>
      <trkpt lat="43.48753" lon="6.12865">
        <ele>186</ele>
        <time>2025-12-13T09:01:44.000Z</time>
      </trkpt>
      <trkpt lat="43.48761" lon="6.12859">
        <ele>186</ele>
        <time>2025-12-13T09:01:55.000Z</time>
      </trkpt>
      <trkpt lat="43.48769" lon="6.12852">
        <ele>185</ele>
        <time>2025-12-13T09:02:06.000Z</time>
      </trkpt>
      <trkpt lat="43.48777" lon="6.12843">
        <ele>185</ele>
        <time>2025-12-13T09:02:17.000Z</time>
      </trkpt>
      <trkpt lat="43.48784" lon="6.12836">
        <ele>185</ele>
        <time>2025-12-13T09:02:27.000Z</time>
      </trkpt>
      <trkpt lat="43.48791" lon="6.12828">
        <ele>185</ele>
        <time>2025-12-13T09:02:38.000Z</time>
      </trkpt>
      <trkpt lat="43.48799" lon="6.12821">
        <ele>185</ele>
        <time>2025-12-13T09:02:48.000Z</time>
      </trkpt>
      <trkpt lat="43.48807" lon="6.12814">
        <ele>185</ele>
        <time>2025-12-13T09:02:59.000Z</time>
      </trkpt>
      <trkpt lat="43.48814" lon="6.12806">
        <ele>185</ele>
        <time>2025-12-13T09:03:10.000Z</time>
      </trkpt>
      <trkpt lat="43.48822" lon="6.12799">
        <ele>185</ele>
        <time>2025-12-13T09:03:20.000Z</time>
      </trkpt>
      <trkpt lat="43.48829" lon="6.1279">
        <ele>185</ele>
        <time>2025-12-13T09:03:31.000Z</time>
      </trkpt>
      <trkpt lat="43.48837" lon="6.12783">
        <ele>185</ele>
        <time>2025-12-13T09:03:43.000Z</time>
      </trkpt>
      <trkpt lat="43.48846" lon="6.12776">
        <ele>185</ele>
        <time>2025-12-13T09:03:54.000Z</time>
      </trkpt>
      <trkpt lat="43.48853" lon="6.12768">
        <ele>185</ele>
        <time>2025-12-13T09:04:05.000Z</time>
      </trkpt>
      <trkpt lat="43.48862" lon="6.12761">
        <ele>185</ele>
        <time>2025-12-13T09:04:17.000Z</time>
      </trkpt>
      <trkpt lat="43.4887" lon="6.12753">
        <ele>184</ele>
        <time>2025-12-13T09:04:29.000Z</time>
      </trkpt>
      <trkpt lat="43.48878" lon="6.12746">
        <ele>184</ele>
        <time>2025-12-13T09:04:39.000Z</time>
      </trkpt>
      <trkpt lat="43.48885" lon="6.12738">
        <ele>184</ele>
        <time>2025-12-13T09:04:50.000Z</time>
      </trkpt>
      <trkpt lat="43.48894" lon="6.12731">
        <ele>185</ele>
        <time>2025-12-13T09:05:12.000Z</time>
      </trkpt>
      <trkpt lat="43.48902" lon="6.12723">
        <ele>185</ele>
        <time>2025-12-13T09:05:23.000Z</time>
      </trkpt>
      <trkpt lat="43.4891" lon="6.12714">
        <ele>184</ele>
        <time>2025-12-13T09:05:34.000Z</time>
      </trkpt>
      <trkpt lat="43.48918" lon="6.12707">
        <ele>185</ele>
        <time>2025-12-13T09:05:55.000Z</time>
      </trkpt>
      <trkpt lat="43.48925" lon="6.12697">
        <ele>185</ele>
        <time>2025-12-13T09:06:06.000Z</time>
      </trkpt>
      <trkpt lat="43.48922" lon="6.12695">
        <ele>186</ele>
        <time>2025-12-13T09:06:19.000Z</time>
      </trkpt>
      <trkpt lat="43.48925" lon="6.1269">
        <ele>186</ele>
        <time>2025-12-13T09:06:25.000Z</time>
      </trkpt>
      <trkpt lat="43.48971" lon="6.12593">
        <ele>190</ele>
        <time>2025-12-13T09:08:42.000Z</time>
      </trkpt>
      <trkpt lat="43.49017" lon="6.12421">
        <ele>191</ele>
        <time>2025-12-13T09:11:24.000Z</time>
      </trkpt>
      <trkpt lat="43.49023" lon="6.12416">
        <ele>191</ele>
        <time>2025-12-13T09:11:32.000Z</time>
      </trkpt>
      <trkpt lat="43.49053" lon="6.12415">
        <ele>190</ele>
        <time>2025-12-13T09:12:06.000Z</time>
      </trkpt>
      <trkpt lat="43.49059" lon="6.12401">
        <ele>190</ele>
        <time>2025-12-13T09:12:20.000Z</time>
      </trkpt>
      <trkpt lat="43.49059" lon="6.12401">
        <ele>190</ele>
        <time>2025-12-13T09:12:20.000Z</time>
      </trkpt>
      <trkpt lat="43.49061" lon="6.12381">
        <ele>191</ele>
        <time>2025-12-13T09:12:47.000Z</time>
      </trkpt>
      <trkpt lat="43.49053" lon="6.12357">
        <ele>192</ele>
        <time>2025-12-13T09:13:19.000Z</time>
      </trkpt>
      <trkpt lat="43.49054" lon="6.12341">
        <ele>193</ele>
        <time>2025-12-13T09:13:43.000Z</time>
      </trkpt>
      <trkpt lat="43.4907" lon="6.12304">
        <ele>195</ele>
        <time>2025-12-13T09:14:40.000Z</time>
      </trkpt>
      <trkpt lat="43.4909" lon="6.12278">
        <ele>198</ele>
        <time>2025-12-13T09:15:42.000Z</time>
      </trkpt>
      <trkpt lat="43.49106" lon="6.12248">
        <ele>198</ele>
        <time>2025-12-13T09:16:13.000Z</time>
      </trkpt>
      <trkpt lat="43.49121" lon="6.12198">
        <ele>201</ele>
        <time>2025-12-13T09:17:28.000Z</time>
      </trkpt>
      <trkpt lat="43.49126" lon="6.12189">
        <ele>201</ele>
        <time>2025-12-13T09:17:37.000Z</time>
      </trkpt>
      <trkpt lat="43.49122" lon="6.12185">
        <ele>201</ele>
        <time>2025-12-13T09:17:42.000Z</time>
      </trkpt>
      <trkpt lat="43.49126" lon="6.12189">
        <ele>201</ele>
        <time>2025-12-13T09:17:47.000Z</time>
      </trkpt>
      <trkpt lat="43.49131" lon="6.1218">
        <ele>202</ele>
        <time>2025-12-13T09:18:07.000Z</time>
      </trkpt>
      <trkpt lat="43.49153" lon="6.12153">
        <ele>204</ele>
        <time>2025-12-13T09:19:01.000Z</time>
      </trkpt>
      <trkpt lat="43.49153" lon="6.12153">
        <ele>204</ele>
        <time>2025-12-13T09:19:01.000Z</time>
      </trkpt>
      <trkpt lat="43.49153" lon="6.12151">
        <ele>205</ele>
        <time>2025-12-13T09:19:14.000Z</time>
      </trkpt>
      <trkpt lat="43.49135" lon="6.12118">
        <ele>208</ele>
        <time>2025-12-13T09:20:18.000Z</time>
      </trkpt>
      <trkpt lat="43.49132" lon="6.12118">
        <ele>208</ele>
        <time>2025-12-13T09:20:22.000Z</time>
      </trkpt>
      <trkpt lat="43.49136" lon="6.12106">
        <ele>209</ele>
        <time>2025-12-13T09:20:43.000Z</time>
      </trkpt>
      <trkpt lat="43.49139" lon="6.12093">
        <ele>211</ele>
        <time>2025-12-13T09:21:14.000Z</time>
      </trkpt>
      <trkpt lat="43.49142" lon="6.12081">
        <ele>213</ele>
        <time>2025-12-13T09:21:45.000Z</time>
      </trkpt>
      <trkpt lat="43.49144" lon="6.12069">
        <ele>215</ele>
        <time>2025-12-13T09:22:16.000Z</time>
      </trkpt>
      <trkpt lat="43.49145" lon="6.12056">
        <ele>216</ele>
        <time>2025-12-13T09:22:37.000Z</time>
      </trkpt>
      <trkpt lat="43.49148" lon="6.12044">
        <ele>219</ele>
        <time>2025-12-13T09:23:19.000Z</time>
      </trkpt>
      <trkpt lat="43.49148" lon="6.12031">
        <ele>221</ele>
        <time>2025-12-13T09:23:50.000Z</time>
      </trkpt>
      <trkpt lat="43.49154" lon="6.1202">
        <ele>222</ele>
        <time>2025-12-13T09:24:11.000Z</time>
      </trkpt>
      <trkpt lat="43.49151" lon="6.12007">
        <ele>223</ele>
        <time>2025-12-13T09:24:32.000Z</time>
      </trkpt>
      <trkpt lat="43.49151" lon="6.11995">
        <ele>226</ele>
        <time>2025-12-13T09:25:13.000Z</time>
      </trkpt>
      <trkpt lat="43.49152" lon="6.11982">
        <ele>226</ele>
        <time>2025-12-13T09:25:24.000Z</time>
      </trkpt>
      <trkpt lat="43.49152" lon="6.11969">
        <ele>227</ele>
        <time>2025-12-13T09:25:45.000Z</time>
      </trkpt>
      <trkpt lat="43.4915" lon="6.11955">
        <ele>228</ele>
        <time>2025-12-13T09:26:07.000Z</time>
      </trkpt>
      <trkpt lat="43.4915" lon="6.11942">
        <ele>229</ele>
        <time>2025-12-13T09:26:28.000Z</time>
      </trkpt>
      <trkpt lat="43.49148" lon="6.11928">
        <ele>229</ele>
        <time>2025-12-13T09:26:40.000Z</time>
      </trkpt>
      <trkpt lat="43.49148" lon="6.11915">
        <ele>229</ele>
        <time>2025-12-13T09:26:51.000Z</time>
      </trkpt>
      <trkpt lat="43.49147" lon="6.11903">
        <ele>230</ele>
        <time>2025-12-13T09:27:12.000Z</time>
      </trkpt>
      <trkpt lat="43.49147" lon="6.11889">
        <ele>231</ele>
        <time>2025-12-13T09:27:33.000Z</time>
      </trkpt>
      <trkpt lat="43.49146" lon="6.11876">
        <ele>232</ele>
        <time>2025-12-13T09:27:55.000Z</time>
      </trkpt>
      <trkpt lat="43.49144" lon="6.11862">
        <ele>234</ele>
        <time>2025-12-13T09:28:27.000Z</time>
      </trkpt>
      <trkpt lat="43.49144" lon="6.11849">
        <ele>235</ele>
        <time>2025-12-13T09:28:49.000Z</time>
      </trkpt>
      <trkpt lat="43.49135" lon="6.11847">
        <ele>235</ele>
        <time>2025-12-13T09:29:00.000Z</time>
      </trkpt>
      <trkpt lat="43.49126" lon="6.11852">
        <ele>235</ele>
        <time>2025-12-13T09:29:11.000Z</time>
      </trkpt>
      <trkpt lat="43.49117" lon="6.11848">
        <ele>235</ele>
        <time>2025-12-13T09:29:21.000Z</time>
      </trkpt>
      <trkpt lat="43.49104" lon="6.11858">
        <ele>235</ele>
        <time>2025-12-13T09:29:38.000Z</time>
      </trkpt>
      <trkpt lat="43.49094" lon="6.11857">
        <ele>235</ele>
        <time>2025-12-13T09:29:49.000Z</time>
      </trkpt>
      <trkpt lat="43.49084" lon="6.11861">
        <ele>234</ele>
        <time>2025-12-13T09:30:02.000Z</time>
      </trkpt>
      <trkpt lat="43.49075" lon="6.11868">
        <ele>234</ele>
        <time>2025-12-13T09:30:13.000Z</time>
      </trkpt>
      <trkpt lat="43.49065" lon="6.1187">
        <ele>234</ele>
        <time>2025-12-13T09:30:24.000Z</time>
      </trkpt>
      <trkpt lat="43.49056" lon="6.11873">
        <ele>233</ele>
        <time>2025-12-13T09:30:35.000Z</time>
      </trkpt>
      <trkpt lat="43.49046" lon="6.11877">
        <ele>233</ele>
        <time>2025-12-13T09:30:47.000Z</time>
      </trkpt>
      <trkpt lat="43.49037" lon="6.11882">
        <ele>233</ele>
        <time>2025-12-13T09:30:58.000Z</time>
      </trkpt>
      <trkpt lat="43.49029" lon="6.11886">
        <ele>234</ele>
        <time>2025-12-13T09:31:19.000Z</time>
      </trkpt>
      <trkpt lat="43.4902" lon="6.1189">
        <ele>234</ele>
        <time>2025-12-13T09:31:30.000Z</time>
      </trkpt>
      <trkpt lat="43.49011" lon="6.11895">
        <ele>234</ele>
        <time>2025-12-13T09:31:41.000Z</time>
      </trkpt>
      <trkpt lat="43.49002" lon="6.11893">
        <ele>235</ele>
        <time>2025-12-13T09:32:02.000Z</time>
      </trkpt>
      <trkpt lat="43.48993" lon="6.11889">
        <ele>235</ele>
        <time>2025-12-13T09:32:12.000Z</time>
      </trkpt>
      <trkpt lat="43.48984" lon="6.11884">
        <ele>237</ele>
        <time>2025-12-13T09:32:43.000Z</time>
      </trkpt>
      <trkpt lat="43.48975" lon="6.11883">
        <ele>237</ele>
        <time>2025-12-13T09:32:53.000Z</time>
      </trkpt>
      <trkpt lat="43.48966" lon="6.11887">
        <ele>238</ele>
        <time>2025-12-13T09:33:15.000Z</time>
      </trkpt>
      <trkpt lat="43.48957" lon="6.11894">
        <ele>239</ele>
        <time>2025-12-13T09:33:37.000Z</time>
      </trkpt>
      <trkpt lat="43.48948" lon="6.11898">
        <ele>239</ele>
        <time>2025-12-13T09:33:48.000Z</time>
      </trkpt>
      <trkpt lat="43.48939" lon="6.11897">
        <ele>239</ele>
        <time>2025-12-13T09:33:59.000Z</time>
      </trkpt>
      <trkpt lat="43.48929" lon="6.11894">
        <ele>238</ele>
        <time>2025-12-13T09:34:10.000Z</time>
      </trkpt>
      <trkpt lat="43.48922" lon="6.11887">
        <ele>236</ele>
        <time>2025-12-13T09:34:21.000Z</time>
      </trkpt>
      <trkpt lat="43.48915" lon="6.11877">
        <ele>235</ele>
        <time>2025-12-13T09:34:32.000Z</time>
      </trkpt>
      <trkpt lat="43.48909" lon="6.11868">
        <ele>235</ele>
        <time>2025-12-13T09:34:42.000Z</time>
      </trkpt>
      <trkpt lat="43.489" lon="6.11861">
        <ele>233</ele>
        <time>2025-12-13T09:34:53.000Z</time>
      </trkpt>
      <trkpt lat="43.48891" lon="6.11857">
        <ele>232</ele>
        <time>2025-12-13T09:35:04.000Z</time>
      </trkpt>
      <trkpt lat="43.48883" lon="6.11853">
        <ele>230</ele>
        <time>2025-12-13T09:35:14.000Z</time>
      </trkpt>
      <trkpt lat="43.48875" lon="6.11847">
        <ele>230</ele>
        <time>2025-12-13T09:35:24.000Z</time>
      </trkpt>
      <trkpt lat="43.48867" lon="6.11839">
        <ele>229</ele>
        <time>2025-12-13T09:35:35.000Z</time>
      </trkpt>
      <trkpt lat="43.4886" lon="6.1183">
        <ele>229</ele>
        <time>2025-12-13T09:35:46.000Z</time>
      </trkpt>
      <trkpt lat="43.48852" lon="6.11823">
        <ele>228</ele>
        <time>2025-12-13T09:35:57.000Z</time>
      </trkpt>
      <trkpt lat="43.48844" lon="6.11816">
        <ele>227</ele>
        <time>2025-12-13T09:36:08.000Z</time>
      </trkpt>
      <trkpt lat="43.48835" lon="6.11812">
        <ele>227</ele>
        <time>2025-12-13T09:36:18.000Z</time>
      </trkpt>
      <trkpt lat="43.48825" lon="6.11811">
        <ele>227</ele>
        <time>2025-12-13T09:36:30.000Z</time>
      </trkpt>
      <trkpt lat="43.48815" lon="6.11813">
        <ele>227</ele>
        <time>2025-12-13T09:36:41.000Z</time>
      </trkpt>
      <trkpt lat="43.48806" lon="6.11817">
        <ele>227</ele>
        <time>2025-12-13T09:36:52.000Z</time>
      </trkpt>
      <trkpt lat="43.48799" lon="6.11825">
        <ele>228</ele>
        <time>2025-12-13T09:37:13.000Z</time>
      </trkpt>
      <trkpt lat="43.4879" lon="6.11831">
        <ele>230</ele>
        <time>2025-12-13T09:37:45.000Z</time>
      </trkpt>
      <trkpt lat="43.48781" lon="6.11835">
        <ele>232</ele>
        <time>2025-12-13T09:38:16.000Z</time>
      </trkpt>
      <trkpt lat="43.48772" lon="6.11838">
        <ele>234</ele>
        <time>2025-12-13T09:38:48.000Z</time>
      </trkpt>
      <trkpt lat="43.48763" lon="6.11841">
        <ele>234</ele>
        <time>2025-12-13T09:38:59.000Z</time>
      </trkpt>
      <trkpt lat="43.48754" lon="6.11845">
        <ele>235</ele>
        <time>2025-12-13T09:39:20.000Z</time>
      </trkpt>
      <trkpt lat="43.48745" lon="6.11848">
        <ele>236</ele>
        <time>2025-12-13T09:39:41.000Z</time>
      </trkpt>
      <trkpt lat="43.48736" lon="6.11847">
        <ele>238</ele>
        <time>2025-12-13T09:40:12.000Z</time>
      </trkpt>
      <trkpt lat="43.48727" lon="6.1185">
        <ele>239</ele>
        <time>2025-12-13T09:40:33.000Z</time>
      </trkpt>
      <trkpt lat="43.48718" lon="6.11853">
        <ele>241</ele>
        <time>2025-12-13T09:41:04.000Z</time>
      </trkpt>
      <trkpt lat="43.4871" lon="6.11858">
        <ele>242</ele>
        <time>2025-12-13T09:41:25.000Z</time>
      </trkpt>
      <trkpt lat="43.487" lon="6.11861">
        <ele>243</ele>
        <time>2025-12-13T09:41:46.000Z</time>
      </trkpt>
      <trkpt lat="43.48693" lon="6.11869">
        <ele>245</ele>
        <time>2025-12-13T09:42:17.000Z</time>
      </trkpt>
      <trkpt lat="43.48687" lon="6.11878">
        <ele>247</ele>
        <time>2025-12-13T09:42:48.000Z</time>
      </trkpt>
      <trkpt lat="43.48679" lon="6.11884">
        <ele>249</ele>
        <time>2025-12-13T09:43:19.000Z</time>
      </trkpt>
      <trkpt lat="43.48672" lon="6.11894">
        <ele>251</ele>
        <time>2025-12-13T09:43:51.000Z</time>
      </trkpt>
      <trkpt lat="43.48668" lon="6.11906">
        <ele>252</ele>
        <time>2025-12-13T09:44:12.000Z</time>
      </trkpt>
      <trkpt lat="43.48666" lon="6.11919">
        <ele>253</ele>
        <time>2025-12-13T09:44:33.000Z</time>
      </trkpt>
      <trkpt lat="43.48662" lon="6.11931">
        <ele>254</ele>
        <time>2025-12-13T09:44:54.000Z</time>
      </trkpt>
      <trkpt lat="43.48657" lon="6.11943">
        <ele>256</ele>
        <time>2025-12-13T09:45:26.000Z</time>
      </trkpt>
      <trkpt lat="43.4865" lon="6.11952">
        <ele>257</ele>
        <time>2025-12-13T09:45:47.000Z</time>
      </trkpt>
      <trkpt lat="43.48642" lon="6.11958">
        <ele>258</ele>
        <time>2025-12-13T09:46:08.000Z</time>
      </trkpt>
      <trkpt lat="43.48634" lon="6.11963">
        <ele>258</ele>
        <time>2025-12-13T09:46:19.000Z</time>
      </trkpt>
      <trkpt lat="43.48624" lon="6.11965">
        <ele>259</ele>
        <time>2025-12-13T09:46:40.000Z</time>
      </trkpt>
      <trkpt lat="43.48615" lon="6.11966">
        <ele>259</ele>
        <time>2025-12-13T09:46:51.000Z</time>
      </trkpt>
      <trkpt lat="43.48606" lon="6.11965">
        <ele>260</ele>
        <time>2025-12-13T09:47:12.000Z</time>
      </trkpt>
      <trkpt lat="43.48596" lon="6.11965">
        <ele>260</ele>
        <time>2025-12-13T09:47:23.000Z</time>
      </trkpt>
      <trkpt lat="43.48587" lon="6.11968">
        <ele>262</ele>
        <time>2025-12-13T09:47:55.000Z</time>
      </trkpt>
      <trkpt lat="43.48578" lon="6.11973">
        <ele>263</ele>
        <time>2025-12-13T09:48:16.000Z</time>
      </trkpt>
      <trkpt lat="43.4857" lon="6.11981">
        <ele>266</ele>
        <time>2025-12-13T09:48:58.000Z</time>
      </trkpt>
      <trkpt lat="43.48562" lon="6.11987">
        <ele>267</ele>
        <time>2025-12-13T09:49:19.000Z</time>
      </trkpt>
      <trkpt lat="43.48553" lon="6.11991">
        <ele>268</ele>
        <time>2025-12-13T09:49:40.000Z</time>
      </trkpt>
      <trkpt lat="43.48545" lon="6.11996">
        <ele>269</ele>
        <time>2025-12-13T09:50:01.000Z</time>
      </trkpt>
      <trkpt lat="43.48536" lon="6.11999">
        <ele>271</ele>
        <time>2025-12-13T09:50:32.000Z</time>
      </trkpt>
      <trkpt lat="43.48526" lon="6.12005">
        <ele>272</ele>
        <time>2025-12-13T09:50:54.000Z</time>
      </trkpt>
      <trkpt lat="43.48518" lon="6.12011">
        <ele>272</ele>
        <time>2025-12-13T09:51:05.000Z</time>
      </trkpt>
      <trkpt lat="43.48509" lon="6.12015">
        <ele>273</ele>
        <time>2025-12-13T09:51:26.000Z</time>
      </trkpt>
      <trkpt lat="43.48501" lon="6.12022">
        <ele>272</ele>
        <time>2025-12-13T09:51:36.000Z</time>
      </trkpt>
      <trkpt lat="43.48492" lon="6.12022">
        <ele>271</ele>
        <time>2025-12-13T09:51:47.000Z</time>
      </trkpt>
      <trkpt lat="43.48482" lon="6.12025">
        <ele>269</ele>
        <time>2025-12-13T09:51:58.000Z</time>
      </trkpt>
      <trkpt lat="43.48472" lon="6.12024">
        <ele>268</ele>
        <time>2025-12-13T09:52:09.000Z</time>
      </trkpt>
      <trkpt lat="43.48464" lon="6.12019">
        <ele>267</ele>
        <time>2025-12-13T09:52:20.000Z</time>
      </trkpt>
      <trkpt lat="43.48454" lon="6.12015">
        <ele>265</ele>
        <time>2025-12-13T09:52:31.000Z</time>
      </trkpt>
      <trkpt lat="43.48445" lon="6.12013">
        <ele>264</ele>
        <time>2025-12-13T09:52:41.000Z</time>
      </trkpt>
      <trkpt lat="43.48438" lon="6.12005">
        <ele>263</ele>
        <time>2025-12-13T09:52:52.000Z</time>
      </trkpt>
      <trkpt lat="43.48431" lon="6.11997">
        <ele>261</ele>
        <time>2025-12-13T09:53:02.000Z</time>
      </trkpt>
      <trkpt lat="43.48423" lon="6.11989">
        <ele>261</ele>
        <time>2025-12-13T09:53:13.000Z</time>
      </trkpt>
      <trkpt lat="43.48415" lon="6.11982">
        <ele>260</ele>
        <time>2025-12-13T09:53:24.000Z</time>
      </trkpt>
      <trkpt lat="43.48407" lon="6.11975">
        <ele>260</ele>
        <time>2025-12-13T09:53:35.000Z</time>
      </trkpt>
      <trkpt lat="43.48397" lon="6.11973">
        <ele>260</ele>
        <time>2025-12-13T09:53:46.000Z</time>
      </trkpt>
      <trkpt lat="43.48388" lon="6.11971">
        <ele>260</ele>
        <time>2025-12-13T09:53:56.000Z</time>
      </trkpt>
      <trkpt lat="43.48378" lon="6.11969">
        <ele>259</ele>
        <time>2025-12-13T09:54:07.000Z</time>
      </trkpt>
      <trkpt lat="43.48369" lon="6.11966">
        <ele>258</ele>
        <time>2025-12-13T09:54:18.000Z</time>
      </trkpt>
      <trkpt lat="43.4836" lon="6.11961">
        <ele>258</ele>
        <time>2025-12-13T09:54:28.000Z</time>
      </trkpt>
      <trkpt lat="43.48351" lon="6.11956">
        <ele>257</ele>
        <time>2025-12-13T09:54:40.000Z</time>
      </trkpt>
      <trkpt lat="43.48343" lon="6.11949">
        <ele>257</ele>
        <time>2025-12-13T09:54:51.000Z</time>
      </trkpt>
      <trkpt lat="43.48335" lon="6.11943">
        <ele>257</ele>
        <time>2025-12-13T09:55:02.000Z</time>
      </trkpt>
      <trkpt lat="43.48326" lon="6.1194">
        <ele>255</ele>
        <time>2025-12-13T09:55:13.000Z</time>
      </trkpt>
      <trkpt lat="43.48316" lon="6.11937">
        <ele>255</ele>
        <time>2025-12-13T09:55:24.000Z</time>
      </trkpt>
      <trkpt lat="43.48306" lon="6.11936">
        <ele>254</ele>
        <time>2025-12-13T09:55:35.000Z</time>
      </trkpt>
      <trkpt lat="43.48297" lon="6.11936">
        <ele>254</ele>
        <time>2025-12-13T09:55:46.000Z</time>
      </trkpt>
      <trkpt lat="43.48287" lon="6.11936">
        <ele>253</ele>
        <time>2025-12-13T09:55:57.000Z</time>
      </trkpt>
      <trkpt lat="43.48278" lon="6.11937">
        <ele>253</ele>
        <time>2025-12-13T09:56:08.000Z</time>
      </trkpt>
      <trkpt lat="43.48268" lon="6.11937">
        <ele>252</ele>
        <time>2025-12-13T09:56:20.000Z</time>
      </trkpt>
      <trkpt lat="43.48258" lon="6.11936">
        <ele>252</ele>
        <time>2025-12-13T09:56:31.000Z</time>
      </trkpt>
      <trkpt lat="43.48249" lon="6.11935">
        <ele>251</ele>
        <time>2025-12-13T09:56:42.000Z</time>
      </trkpt>
      <trkpt lat="43.4824" lon="6.1193">
        <ele>250</ele>
        <time>2025-12-13T09:56:53.000Z</time>
      </trkpt>
      <trkpt lat="43.48233" lon="6.1192">
        <ele>251</ele>
        <time>2025-12-13T09:57:14.000Z</time>
      </trkpt>
      <trkpt lat="43.48225" lon="6.11914">
        <ele>251</ele>
        <time>2025-12-13T09:57:25.000Z</time>
      </trkpt>
      <trkpt lat="43.48217" lon="6.11906">
        <ele>251</ele>
        <time>2025-12-13T09:57:37.000Z</time>
      </trkpt>
      <trkpt lat="43.48209" lon="6.11899">
        <ele>251</ele>
        <time>2025-12-13T09:57:48.000Z</time>
      </trkpt>
      <trkpt lat="43.48199" lon="6.11895">
        <ele>251</ele>
        <time>2025-12-13T09:57:59.000Z</time>
      </trkpt>
      <trkpt lat="43.4819" lon="6.11894">
        <ele>251</ele>
        <time>2025-12-13T09:58:09.000Z</time>
      </trkpt>
      <trkpt lat="43.48181" lon="6.11897">
        <ele>251</ele>
        <time>2025-12-13T09:58:20.000Z</time>
      </trkpt>
      <trkpt lat="43.48171" lon="6.11895">
        <ele>250</ele>
        <time>2025-12-13T09:58:31.000Z</time>
      </trkpt>
      <trkpt lat="43.48162" lon="6.11894">
        <ele>250</ele>
        <time>2025-12-13T09:58:42.000Z</time>
      </trkpt>
      <trkpt lat="43.48152" lon="6.11893">
        <ele>250</ele>
        <time>2025-12-13T09:58:53.000Z</time>
      </trkpt>
      <trkpt lat="43.48143" lon="6.11895">
        <ele>250</ele>
        <time>2025-12-13T09:59:04.000Z</time>
      </trkpt>
      <trkpt lat="43.48133" lon="6.11899">
        <ele>250</ele>
        <time>2025-12-13T09:59:16.000Z</time>
      </trkpt>
      <trkpt lat="43.48125" lon="6.11906">
        <ele>250</ele>
        <time>2025-12-13T09:59:27.000Z</time>
      </trkpt>
      <trkpt lat="43.48119" lon="6.11917">
        <ele>249</ele>
        <time>2025-12-13T09:59:39.000Z</time>
      </trkpt>
      <trkpt lat="43.48112" lon="6.11926">
        <ele>249</ele>
        <time>2025-12-13T09:59:50.000Z</time>
      </trkpt>
      <trkpt lat="43.48103" lon="6.11931">
        <ele>248</ele>
        <time>2025-12-13T10:00:01.000Z</time>
      </trkpt>
      <trkpt lat="43.48094" lon="6.11938">
        <ele>247</ele>
        <time>2025-12-13T10:00:12.000Z</time>
      </trkpt>
      <trkpt lat="43.48089" lon="6.11949">
        <ele>247</ele>
        <time>2025-12-13T10:00:23.000Z</time>
      </trkpt>
      <trkpt lat="43.48083" lon="6.1196">
        <ele>247</ele>
        <time>2025-12-13T10:00:34.000Z</time>
      </trkpt>
      <trkpt lat="43.48074" lon="6.11967">
        <ele>246</ele>
        <time>2025-12-13T10:00:45.000Z</time>
      </trkpt>
      <trkpt lat="43.48065" lon="6.11968">
        <ele>245</ele>
        <time>2025-12-13T10:00:55.000Z</time>
      </trkpt>
      <trkpt lat="43.48056" lon="6.11968">
        <ele>244</ele>
        <time>2025-12-13T10:01:06.000Z</time>
      </trkpt>
      <trkpt lat="43.48048" lon="6.11963">
        <ele>243</ele>
        <time>2025-12-13T10:01:16.000Z</time>
      </trkpt>
      <trkpt lat="43.48045" lon="6.11951">
        <ele>241</ele>
        <time>2025-12-13T10:01:26.000Z</time>
      </trkpt>
      <trkpt lat="43.48037" lon="6.11944">
        <ele>240</ele>
        <time>2025-12-13T10:01:37.000Z</time>
      </trkpt>
      <trkpt lat="43.48027" lon="6.11939">
        <ele>238</ele>
        <time>2025-12-13T10:01:48.000Z</time>
      </trkpt>
      <trkpt lat="43.48018" lon="6.11935">
        <ele>237</ele>
        <time>2025-12-13T10:01:59.000Z</time>
      </trkpt>
      <trkpt lat="43.4801" lon="6.11932">
        <ele>236</ele>
        <time>2025-12-13T10:02:09.000Z</time>
      </trkpt>
      <trkpt lat="43.48001" lon="6.11928">
        <ele>236</ele>
        <time>2025-12-13T10:02:20.000Z</time>
      </trkpt>
      <trkpt lat="43.47991" lon="6.11926">
        <ele>235</ele>
        <time>2025-12-13T10:02:31.000Z</time>
      </trkpt>
      <trkpt lat="43.47982" lon="6.11924">
        <ele>233</ele>
        <time>2025-12-13T10:02:41.000Z</time>
      </trkpt>
      <trkpt lat="43.47972" lon="6.11923">
        <ele>232</ele>
        <time>2025-12-13T10:02:53.000Z</time>
      </trkpt>
      <trkpt lat="43.47962" lon="6.11921">
        <ele>231</ele>
        <time>2025-12-13T10:03:05.000Z</time>
      </trkpt>
      <trkpt lat="43.47952" lon="6.11921">
        <ele>230</ele>
        <time>2025-12-13T10:03:16.000Z</time>
      </trkpt>
      <trkpt lat="43.47943" lon="6.11919">
        <ele>228</ele>
        <time>2025-12-13T10:03:27.000Z</time>
      </trkpt>
      <trkpt lat="43.47933" lon="6.11919">
        <ele>226</ele>
        <time>2025-12-13T10:03:38.000Z</time>
      </trkpt>
      <trkpt lat="43.47923" lon="6.11919">
        <ele>225</ele>
        <time>2025-12-13T10:03:49.000Z</time>
      </trkpt>
      <trkpt lat="43.47915" lon="6.11924">
        <ele>224</ele>
        <time>2025-12-13T10:04:00.000Z</time>
      </trkpt>
      <trkpt lat="43.47905" lon="6.11926">
        <ele>223</ele>
        <time>2025-12-13T10:04:12.000Z</time>
      </trkpt>
      <trkpt lat="43.47895" lon="6.11925">
        <ele>223</ele>
        <time>2025-12-13T10:04:23.000Z</time>
      </trkpt>
      <trkpt lat="43.47886" lon="6.1193">
        <ele>222</ele>
        <time>2025-12-13T10:04:34.000Z</time>
      </trkpt>
      <trkpt lat="43.47877" lon="6.11935">
        <ele>221</ele>
        <time>2025-12-13T10:04:45.000Z</time>
      </trkpt>
      <trkpt lat="43.47869" lon="6.11941">
        <ele>220</ele>
        <time>2025-12-13T10:04:56.000Z</time>
      </trkpt>
      <trkpt lat="43.47861" lon="6.11947">
        <ele>218</ele>
        <time>2025-12-13T10:05:06.000Z</time>
      </trkpt>
      <trkpt lat="43.47854" lon="6.11954">
        <ele>217</ele>
        <time>2025-12-13T10:05:16.000Z</time>
      </trkpt>
      <trkpt lat="43.47847" lon="6.11963">
        <ele>216</ele>
        <time>2025-12-13T10:05:27.000Z</time>
      </trkpt>
      <trkpt lat="43.47841" lon="6.11974">
        <ele>214</ele>
        <time>2025-12-13T10:05:38.000Z</time>
      </trkpt>
      <trkpt lat="43.47834" lon="6.11982">
        <ele>212</ele>
        <time>2025-12-13T10:05:49.000Z</time>
      </trkpt>
      <trkpt lat="43.47825" lon="6.11989">
        <ele>211</ele>
        <time>2025-12-13T10:06:00.000Z</time>
      </trkpt>
      <trkpt lat="43.47817" lon="6.11993">
        <ele>209</ele>
        <time>2025-12-13T10:06:11.000Z</time>
      </trkpt>
      <trkpt lat="43.47808" lon="6.11997">
        <ele>206</ele>
        <time>2025-12-13T10:06:21.000Z</time>
      </trkpt>
      <trkpt lat="43.47799" lon="6.12001">
        <ele>204</ele>
        <time>2025-12-13T10:06:31.000Z</time>
      </trkpt>
      <trkpt lat="43.47792" lon="6.12008">
        <ele>203</ele>
        <time>2025-12-13T10:06:42.000Z</time>
      </trkpt>
      <trkpt lat="43.47782" lon="6.1201">
        <ele>200</ele>
        <time>2025-12-13T10:06:53.000Z</time>
      </trkpt>
      <trkpt lat="43.47773" lon="6.12009">
        <ele>198</ele>
        <time>2025-12-13T10:07:04.000Z</time>
      </trkpt>
      <trkpt lat="43.47764" lon="6.12008">
        <ele>196</ele>
        <time>2025-12-13T10:07:15.000Z</time>
      </trkpt>
      <trkpt lat="43.47754" lon="6.12008">
        <ele>194</ele>
        <time>2025-12-13T10:07:26.000Z</time>
      </trkpt>
      <trkpt lat="43.47744" lon="6.1201">
        <ele>193</ele>
        <time>2025-12-13T10:07:37.000Z</time>
      </trkpt>
      <trkpt lat="43.47735" lon="6.1201">
        <ele>191</ele>
        <time>2025-12-13T10:07:47.000Z</time>
      </trkpt>
      <trkpt lat="43.47727" lon="6.12015">
        <ele>190</ele>
        <time>2025-12-13T10:07:58.000Z</time>
      </trkpt>
      <trkpt lat="43.47717" lon="6.12021">
        <ele>190</ele>
        <time>2025-12-13T10:08:10.000Z</time>
      </trkpt>
      <trkpt lat="43.47708" lon="6.12024">
        <ele>188</ele>
        <time>2025-12-13T10:08:20.000Z</time>
      </trkpt>
      <trkpt lat="43.47699" lon="6.12026">
        <ele>185</ele>
        <time>2025-12-13T10:08:31.000Z</time>
      </trkpt>
      <trkpt lat="43.4769" lon="6.12029">
        <ele>183</ele>
        <time>2025-12-13T10:08:42.000Z</time>
      </trkpt>
      <trkpt lat="43.47681" lon="6.12028">
        <ele>182</ele>
        <time>2025-12-13T10:08:53.000Z</time>
      </trkpt>
      <trkpt lat="43.47671" lon="6.12027">
        <ele>179</ele>
        <time>2025-12-13T10:09:04.000Z</time>
      </trkpt>
      <trkpt lat="43.47662" lon="6.1203">
        <ele>177</ele>
        <time>2025-12-13T10:09:15.000Z</time>
      </trkpt>
      <trkpt lat="43.47653" lon="6.12034">
        <ele>174</ele>
        <time>2025-12-13T10:09:26.000Z</time>
      </trkpt>
      <trkpt lat="43.47643" lon="6.12036">
        <ele>169</ele>
        <time>2025-12-13T10:09:37.000Z</time>
      </trkpt>
      <trkpt lat="43.47635" lon="6.1204">
        <ele>168</ele>
        <time>2025-12-13T10:09:47.000Z</time>
      </trkpt>
      <trkpt lat="43.47626" lon="6.12036">
        <ele>167</ele>
        <time>2025-12-13T10:09:57.000Z</time>
      </trkpt>
      <trkpt lat="43.47618" lon="6.12031">
        <ele>166</ele>
        <time>2025-12-13T10:10:08.000Z</time>
      </trkpt>
      <trkpt lat="43.47608" lon="6.12034">
        <ele>166</ele>
        <time>2025-12-13T10:10:20.000Z</time>
      </trkpt>
      <trkpt lat="43.47598" lon="6.12038">
        <ele>164</ele>
        <time>2025-12-13T10:10:31.000Z</time>
      </trkpt>
      <trkpt lat="43.47591" lon="6.12046">
        <ele>165</ele>
        <time>2025-12-13T10:10:52.000Z</time>
      </trkpt>
      <trkpt lat="43.47585" lon="6.12056">
        <ele>164</ele>
        <time>2025-12-13T10:11:03.000Z</time>
      </trkpt>
      <trkpt lat="43.47581" lon="6.12066">
        <ele>163</ele>
        <time>2025-12-13T10:11:13.000Z</time>
      </trkpt>
      <trkpt lat="43.47576" lon="6.12078">
        <ele>163</ele>
        <time>2025-12-13T10:11:24.000Z</time>
      </trkpt>
      <trkpt lat="43.47576" lon="6.12091">
        <ele>163</ele>
        <time>2025-12-13T10:11:35.000Z</time>
      </trkpt>
      <trkpt lat="43.47573" lon="6.12104">
        <ele>162</ele>
        <time>2025-12-13T10:11:46.000Z</time>
      </trkpt>
      <trkpt lat="43.4757" lon="6.12117">
        <ele>161</ele>
        <time>2025-12-13T10:11:58.000Z</time>
      </trkpt>
      <trkpt lat="43.4757" lon="6.1213">
        <ele>161</ele>
        <time>2025-12-13T10:12:09.000Z</time>
      </trkpt>
      <trkpt lat="43.47568" lon="6.12142">
        <ele>160</ele>
        <time>2025-12-13T10:12:19.000Z</time>
      </trkpt>
      <trkpt lat="43.47563" lon="6.12152">
        <ele>159</ele>
        <time>2025-12-13T10:12:30.000Z</time>
      </trkpt>
      <trkpt lat="43.47554" lon="6.12158">
        <ele>158</ele>
        <time>2025-12-13T10:12:41.000Z</time>
      </trkpt>
      <trkpt lat="43.47554" lon="6.12156">
        <ele>158</ele>
        <time>2025-12-13T10:12:43.000Z</time>
      </trkpt>
      <trkpt lat="43.47548" lon="6.12156">
        <ele>157</ele>
        <time>2025-12-13T10:12:51.000Z</time>
      </trkpt>
      <trkpt lat="43.47542" lon="6.12153">
        <ele>157</ele>
        <time>2025-12-13T10:12:58.000Z</time>
      </trkpt>
      <trkpt lat="43.47515" lon="6.12127">
        <ele>155</ele>
        <time>2025-12-13T10:13:36.000Z</time>
      </trkpt>
      <trkpt lat="43.47504" lon="6.12123">
        <ele>153</ele>
        <time>2025-12-13T10:13:48.000Z</time>
      </trkpt>
      <trkpt lat="43.47487" lon="6.12132">
        <ele>152</ele>
        <time>2025-12-13T10:14:08.000Z</time>
      </trkpt>
      <trkpt lat="43.4746" lon="6.12159">
        <ele>152</ele>
        <time>2025-12-13T10:14:46.000Z</time>
      </trkpt>
      <trkpt lat="43.4742" lon="6.12183">
        <ele>150</ele>
        <time>2025-12-13T10:15:36.000Z</time>
      </trkpt>
      <trkpt lat="43.47387" lon="6.12193">
        <ele>149</ele>
        <time>2025-12-13T10:16:15.000Z</time>
      </trkpt>
      <trkpt lat="43.47391" lon="6.12234">
        <ele>150</ele>
        <time>2025-12-13T10:16:59.000Z</time>
      </trkpt>
      <trkpt lat="43.47401" lon="6.12231">
        <ele>151</ele>
        <time>2025-12-13T10:17:21.000Z</time>
      </trkpt>
      <trkpt lat="43.47401" lon="6.12231">
        <ele>151</ele>
        <time>2025-12-13T10:17:21.000Z</time>
      </trkpt>
      <trkpt lat="43.47391" lon="6.12234">
        <ele>150</ele>
        <time>2025-12-13T10:17:33.000Z</time>
      </trkpt>
      <trkpt lat="43.47387" lon="6.12193">
        <ele>149</ele>
        <time>2025-12-13T10:18:07.000Z</time>
      </trkpt>
      <trkpt lat="43.47383" lon="6.12195">
        <ele>149</ele>
        <time>2025-12-13T10:18:12.000Z</time>
      </trkpt>
      <trkpt lat="43.47316" lon="6.12211">
        <ele>147</ele>
        <time>2025-12-13T10:19:29.000Z</time>
      </trkpt>
      <trkpt lat="43.47254" lon="6.12244">
        <ele>145</ele>
        <time>2025-12-13T10:20:45.000Z</time>
      </trkpt>
      <trkpt lat="43.47248" lon="6.12253">
        <ele>145</ele>
        <time>2025-12-13T10:20:55.000Z</time>
      </trkpt>
      <trkpt lat="43.47243" lon="6.12277">
        <ele>145</ele>
        <time>2025-12-13T10:21:16.000Z</time>
      </trkpt>
      <trkpt lat="43.47241" lon="6.12341">
        <ele>144</ele>
        <time>2025-12-13T10:22:10.000Z</time>
      </trkpt>
      <trkpt lat="43.47228" lon="6.12341">
        <ele>143</ele>
        <time>2025-12-13T10:22:26.000Z</time>
      </trkpt>
    </trkseg>
  </trk>
</gpx>